sensor_id;sensor_type;location;lat;lon;timestamp;temperature;humidity
65058;HTU21D;51644;51.068;5.860;2023-06-26T00:00:26;25.84;56.58
65058;HTU21D;51644;51.068;5.860;2023-06-26T00:01:26;25.84;56.46
65058;HTU21D;51644;51.068;5.860;2023-06-26T00:02:27;25.88;56.39
65058;HTU21D;51644;51.068;5.860;2023-06-26T00:03:26;25.89;56.23
65058;HTU21D;51644;51.068;5.860;2023-06-26T00:04:25;25.89;56.13
65058;HTU21D;51644;51.068;5.860;2023-06-26T00:05:23;25.90;56.31
65058;HTU21D;51644;51.068;5.860;2023-06-26T00:06:22;25.92;56.07
65058;HTU21D;51644;51.068;5.860;2023-06-26T00:07:23;25.93;56.20
65058;HTU21D;51644;51.068;5.860;2023-06-26T00:08:21;25.91;55.95
65058;HTU21D;51644;51.068;5.860;2023-06-26T00:09:20;25.92;55.94
65058;HTU21D;51644;51.068;5.860;2023-06-26T00:10:18;25.91;56.19
65058;HTU21D;51644;51.068;5.860;2023-06-26T00:11:17;25.90;56.33
65058;HTU21D;51644;51.068;5.860;2023-06-26T00:12:16;25.91;56.29
65058;HTU21D;51644;51.068;5.860;2023-06-26T00:13:14;25.91;56.05
65058;HTU21D;51644;51.068;5.860;2023-06-26T00:14:19;25.92;55.80
65058;HTU21D;51644;51.068;5.860;2023-06-26T00:15:19;25.94;55.67
65058;HTU21D;51644;51.068;5.860;2023-06-26T00:16:18;25.92;55.63
65058;HTU21D;51644;51.068;5.860;2023-06-26T00:17:16;25.89;55.58
65058;HTU21D;51644;51.068;5.860;2023-06-26T00:18:15;25.84;55.39
65058;HTU21D;51644;51.068;5.860;2023-06-26T00:19:14;25.82;55.30
65058;HTU21D;51644;51.068;5.860;2023-06-26T00:20:12;25.79;55.37
65058;HTU21D;51644;51.068;5.860;2023-06-26T00:21:15;25.78;55.39
65058;HTU21D;51644;51.068;5.860;2023-06-26T00:22:14;25.76;55.36
65058;HTU21D;51644;51.068;5.860;2023-06-26T00:23:18;25.76;55.30
65058;HTU21D;51644;51.068;5.860;2023-06-26T00:24:17;25.75;55.25
65058;HTU21D;51644;51.068;5.860;2023-06-26T00:25:16;25.72;55.29
65058;HTU21D;51644;51.068;5.860;2023-06-26T00:26:14;25.71;55.24
65058;HTU21D;51644;51.068;5.860;2023-06-26T00:27:13;25.68;55.27
65058;HTU21D;51644;51.068;5.860;2023-06-26T00:28:11;25.68;55.36
65058;HTU21D;51644;51.068;5.860;2023-06-26T00:29:10;25.68;55.31
65058;HTU21D;51644;51.068;5.860;2023-06-26T00:30:09;25.68;55.32
65058;HTU21D;51644;51.068;5.860;2023-06-26T00:31:08;25.67;55.10
65058;HTU21D;51644;51.068;5.860;2023-06-26T00:32:07;25.66;54.94
65058;HTU21D;51644;51.068;5.860;2023-06-26T00:33:06;25.69;54.91
65058;HTU21D;51644;51.068;5.860;2023-06-26T00:34:05;25.68;54.86
65058;HTU21D;51644;51.068;5.860;2023-06-26T00:35:03;25.69;54.85
65058;HTU21D;51644;51.068;5.860;2023-06-26T00:36:02;25.67;55.06
65058;HTU21D;51644;51.068;5.860;2023-06-26T00:37:03;25.67;55.19
65058;HTU21D;51644;51.068;5.860;2023-06-26T00:38:03;25.67;55.25
65058;HTU21D;51644;51.068;5.860;2023-06-26T00:39:01;25.66;55.36
65058;HTU21D;51644;51.068;5.860;2023-06-26T00:40:02;25.64;55.30
65058;HTU21D;51644;51.068;5.860;2023-06-26T00:41:04;25.64;55.22
65058;HTU21D;51644;51.068;5.860;2023-06-26T00:42:03;25.64;55.10
65058;HTU21D;51644;51.068;5.860;2023-06-26T00:43:02;25.64;55.12
65058;HTU21D;51644;51.068;5.860;2023-06-26T00:44:00;25.62;54.89
65058;HTU21D;51644;51.068;5.860;2023-06-26T00:44:59;25.60;54.66
65058;HTU21D;51644;51.068;5.860;2023-06-26T00:45:58;25.56;54.33
65058;HTU21D;51644;51.068;5.860;2023-06-26T00:46:56;25.54;54.61
65058;HTU21D;51644;51.068;5.860;2023-06-26T00:47:56;25.52;54.54
65058;HTU21D;51644;51.068;5.860;2023-06-26T00:48:59;25.45;54.59
65058;HTU21D;51644;51.068;5.860;2023-06-26T00:49:58;25.44;54.48
65058;HTU21D;51644;51.068;5.860;2023-06-26T00:50:57;25.39;54.42
65058;HTU21D;51644;51.068;5.860;2023-06-26T00:51:56;25.35;54.46
65058;HTU21D;51644;51.068;5.860;2023-06-26T00:52:55;25.33;54.40
65058;HTU21D;51644;51.068;5.860;2023-06-26T00:53:59;25.31;54.42
65058;HTU21D;51644;51.068;5.860;2023-06-26T00:54:58;25.25;54.51
65058;HTU21D;51644;51.068;5.860;2023-06-26T00:55:57;25.23;54.48
65058;HTU21D;51644;51.068;5.860;2023-06-26T00:56:56;25.22;54.46
65058;HTU21D;51644;51.068;5.860;2023-06-26T00:57:55;25.23;54.39
65058;HTU21D;51644;51.068;5.860;2023-06-26T00:58:54;25.21;54.39
65058;HTU21D;51644;51.068;5.860;2023-06-26T00:59:53;25.17;54.51
65058;HTU21D;51644;51.068;5.860;2023-06-26T01:00:57;25.19;54.44
65058;HTU21D;51644;51.068;5.860;2023-06-26T01:01:55;25.19;54.42
65058;HTU21D;51644;51.068;5.860;2023-06-26T01:02:54;25.15;54.47
65058;HTU21D;51644;51.068;5.860;2023-06-26T01:03:59;25.16;54.43
65058;HTU21D;51644;51.068;5.860;2023-06-26T01:04:58;25.15;54.36
65058;HTU21D;51644;51.068;5.860;2023-06-26T01:05:59;25.15;54.44
65058;HTU21D;51644;51.068;5.860;2023-06-26T01:06:59;25.17;54.38
65058;HTU21D;51644;51.068;5.860;2023-06-26T01:07:59;25.14;54.39
65058;HTU21D;51644;51.068;5.860;2023-06-26T01:08:59;25.15;54.30
65058;HTU21D;51644;51.068;5.860;2023-06-26T01:09:58;25.08;54.42
65058;HTU21D;51644;51.068;5.860;2023-06-26T01:10:59;25.12;54.32
65058;HTU21D;51644;51.068;5.860;2023-06-26T01:11:58;25.12;54.33
65058;HTU21D;51644;51.068;5.860;2023-06-26T01:13:00;25.12;54.27
65058;HTU21D;51644;51.068;5.860;2023-06-26T01:14:01;25.08;54.36
65058;HTU21D;51644;51.068;5.860;2023-06-26T01:15:03;25.05;54.40
65058;HTU21D;51644;51.068;5.860;2023-06-26T01:16:04;25.06;54.34
65058;HTU21D;51644;51.068;5.860;2023-06-26T01:17:04;25.06;54.38
65058;HTU21D;51644;51.068;5.860;2023-06-26T01:18:04;25.03;54.52
65058;HTU21D;51644;51.068;5.860;2023-06-26T01:19:14;25.02;54.57
65058;HTU21D;51644;51.068;5.860;2023-06-26T01:20:23;25.03;54.44
65058;HTU21D;51644;51.068;5.860;2023-06-26T01:21:23;25.01;54.50
65058;HTU21D;51644;51.068;5.860;2023-06-26T01:24:16;24.95;54.94
65058;HTU21D;51644;51.068;5.860;2023-06-26T01:26:40;24.95;54.71
65058;HTU21D;51644;51.068;5.860;2023-06-26T01:27:41;24.95;54.76
65058;HTU21D;51644;51.068;5.860;2023-06-26T01:28:45;24.94;54.87
65058;HTU21D;51644;51.068;5.860;2023-06-26T01:29:45;24.94;54.88
65058;HTU21D;51644;51.068;5.860;2023-06-26T01:30:45;24.93;55.00
65058;HTU21D;51644;51.068;5.860;2023-06-26T01:31:46;24.94;55.02
65058;HTU21D;51644;51.068;5.860;2023-06-26T01:32:48;24.94;55.17
65058;HTU21D;51644;51.068;5.860;2023-06-26T01:33:49;24.94;55.21
65058;HTU21D;51644;51.068;5.860;2023-06-26T01:34:48;24.97;55.14
65058;HTU21D;51644;51.068;5.860;2023-06-26T01:35:48;25.00;55.13
65058;HTU21D;51644;51.068;5.860;2023-06-26T01:36:47;25.01;55.17
65058;HTU21D;51644;51.068;5.860;2023-06-26T01:37:45;25.02;55.11
65058;HTU21D;51644;51.068;5.860;2023-06-26T01:38:44;25.02;55.08
65058;HTU21D;51644;51.068;5.860;2023-06-26T01:39:42;25.02;55.13
65058;HTU21D;51644;51.068;5.860;2023-06-26T01:40:41;25.02;55.17
65058;HTU21D;51644;51.068;5.860;2023-06-26T01:41:42;25.02;55.32
65058;HTU21D;51644;51.068;5.860;2023-06-26T01:42:42;25.00;55.34
65058;HTU21D;51644;51.068;5.860;2023-06-26T01:43:55;25.01;55.45
65058;HTU21D;51644;51.068;5.860;2023-06-26T01:44:56;25.02;55.58
65058;HTU21D;51644;51.068;5.860;2023-06-26T01:46:02;25.02;55.58
65058;HTU21D;51644;51.068;5.860;2023-06-26T01:47:05;25.03;55.47
65058;HTU21D;51644;51.068;5.860;2023-06-26T01:48:07;25.01;55.58
65058;HTU21D;51644;51.068;5.860;2023-06-26T01:50:24;24.99;55.72
65058;HTU21D;51644;51.068;5.860;2023-06-26T01:51:30;25.00;55.76
65058;HTU21D;51644;51.068;5.860;2023-06-26T01:53:40;24.92;55.90
65058;HTU21D;51644;51.068;5.860;2023-06-26T01:54:53;24.86;56.10
65058;HTU21D;51644;51.068;5.860;2023-06-26T01:55:58;24.83;56.21
65058;HTU21D;51644;51.068;5.860;2023-06-26T01:56:59;24.77;56.32
65058;HTU21D;51644;51.068;5.860;2023-06-26T01:57:58;24.76;56.35
65058;HTU21D;51644;51.068;5.860;2023-06-26T01:59:00;24.75;56.45
65058;HTU21D;51644;51.068;5.860;2023-06-26T02:00:01;24.69;56.59
65058;HTU21D;51644;51.068;5.860;2023-06-26T02:01:01;24.69;56.72
65058;HTU21D;51644;51.068;5.860;2023-06-26T02:02:01;24.66;56.75
65058;HTU21D;51644;51.068;5.860;2023-06-26T02:03:00;24.65;56.88
65058;HTU21D;51644;51.068;5.860;2023-06-26T02:03:59;24.64;56.98
65058;HTU21D;51644;51.068;5.860;2023-06-26T02:04:57;24.63;57.05
65058;HTU21D;51644;51.068;5.860;2023-06-26T02:05:56;24.63;57.12
65058;HTU21D;51644;51.068;5.860;2023-06-26T02:06:55;24.64;57.21
65058;HTU21D;51644;51.068;5.860;2023-06-26T02:07:53;24.65;57.19
65058;HTU21D;51644;51.068;5.860;2023-06-26T02:08:52;24.66;57.29
65058;HTU21D;51644;51.068;5.860;2023-06-26T02:09:50;24.64;57.25
65058;HTU21D;51644;51.068;5.860;2023-06-26T02:10:49;24.64;57.07
65058;HTU21D;51644;51.068;5.860;2023-06-26T02:11:48;24.63;57.22
65058;HTU21D;51644;51.068;5.860;2023-06-26T02:12:47;24.62;57.05
65058;HTU21D;51644;51.068;5.860;2023-06-26T02:13:46;24.62;56.94
65058;HTU21D;51644;51.068;5.860;2023-06-26T02:14:45;24.61;56.96
65058;HTU21D;51644;51.068;5.860;2023-06-26T02:15:44;24.57;56.94
65058;HTU21D;51644;51.068;5.860;2023-06-26T02:16:42;24.58;56.84
65058;HTU21D;51644;51.068;5.860;2023-06-26T02:17:41;24.59;56.81
65058;HTU21D;51644;51.068;5.860;2023-06-26T02:18:40;24.58;56.81
65058;HTU21D;51644;51.068;5.860;2023-06-26T02:19:39;24.56;56.92
65058;HTU21D;51644;51.068;5.860;2023-06-26T02:20:45;24.56;56.83
65058;HTU21D;51644;51.068;5.860;2023-06-26T02:21:50;24.55;56.68
65058;HTU21D;51644;51.068;5.860;2023-06-26T02:22:49;24.56;56.45
65058;HTU21D;51644;51.068;5.860;2023-06-26T02:23:48;24.56;56.40
65058;HTU21D;51644;51.068;5.860;2023-06-26T02:24:46;24.56;56.35
65058;HTU21D;51644;51.068;5.860;2023-06-26T02:25:45;24.57;56.39
65058;HTU21D;51644;51.068;5.860;2023-06-26T02:26:51;24.57;56.27
65058;HTU21D;51644;51.068;5.860;2023-06-26T02:27:49;24.58;56.12
65058;HTU21D;51644;51.068;5.860;2023-06-26T02:28:48;24.58;56.08
65058;HTU21D;51644;51.068;5.860;2023-06-26T02:29:47;24.58;56.13
65058;HTU21D;51644;51.068;5.860;2023-06-26T02:30:46;24.49;56.08
65058;HTU21D;51644;51.068;5.860;2023-06-26T02:31:44;24.50;55.94
65058;HTU21D;51644;51.068;5.860;2023-06-26T02:32:46;24.47;55.94
65058;HTU21D;51644;51.068;5.860;2023-06-26T02:33:44;24.46;55.75
65058;HTU21D;51644;51.068;5.860;2023-06-26T02:34:47;24.46;55.59
65058;HTU21D;51644;51.068;5.860;2023-06-26T02:35:45;24.44;55.53
65058;HTU21D;51644;51.068;5.860;2023-06-26T02:36:44;24.46;55.50
65058;HTU21D;51644;51.068;5.860;2023-06-26T02:37:43;24.46;55.55
65058;HTU21D;51644;51.068;5.860;2023-06-26T02:38:41;24.45;55.39
65058;HTU21D;51644;51.068;5.860;2023-06-26T02:39:40;24.43;55.42
65058;HTU21D;51644;51.068;5.860;2023-06-26T02:40:41;24.41;55.53
65058;HTU21D;51644;51.068;5.860;2023-06-26T02:41:40;24.41;55.48
65058;HTU21D;51644;51.068;5.860;2023-06-26T02:42:39;24.40;55.52
65058;HTU21D;51644;51.068;5.860;2023-06-26T02:43:38;24.40;55.58
65058;HTU21D;51644;51.068;5.860;2023-06-26T02:44:36;24.40;55.52
65058;HTU21D;51644;51.068;5.860;2023-06-26T02:45:35;24.41;55.55
65058;HTU21D;51644;51.068;5.860;2023-06-26T02:46:34;24.42;55.57
65058;HTU21D;51644;51.068;5.860;2023-06-26T02:47:32;24.41;55.60
65058;HTU21D;51644;51.068;5.860;2023-06-26T02:48:31;24.42;55.45
65058;HTU21D;51644;51.068;5.860;2023-06-26T02:49:30;24.40;55.34
65058;HTU21D;51644;51.068;5.860;2023-06-26T02:50:28;24.39;55.27
65058;HTU21D;51644;51.068;5.860;2023-06-26T02:51:43;24.31;55.24
65058;HTU21D;51644;51.068;5.860;2023-06-26T02:52:47;24.32;55.19
65058;HTU21D;51644;51.068;5.860;2023-06-26T02:53:53;24.28;55.26
65058;HTU21D;51644;51.068;5.860;2023-06-26T02:54:52;24.21;55.39
65058;HTU21D;51644;51.068;5.860;2023-06-26T02:55:51;24.20;55.30
65058;HTU21D;51644;51.068;5.860;2023-06-26T02:56:50;24.19;55.38
65058;HTU21D;51644;51.068;5.860;2023-06-26T02:57:54;24.16;55.39
65058;HTU21D;51644;51.068;5.860;2023-06-26T02:58:54;24.12;55.42
65058;HTU21D;51644;51.068;5.860;2023-06-26T02:59:53;24.12;55.35
65058;HTU21D;51644;51.068;5.860;2023-06-26T03:00:51;24.11;55.42
65058;HTU21D;51644;51.068;5.860;2023-06-26T03:01:54;24.04;55.48
65058;HTU21D;51644;51.068;5.860;2023-06-26T03:02:59;24.02;55.45
65058;HTU21D;51644;51.068;5.860;2023-06-26T03:03:58;23.99;55.55
65058;HTU21D;51644;51.068;5.860;2023-06-26T03:04:59;23.95;55.55
65058;HTU21D;51644;51.068;5.860;2023-06-26T03:05:57;23.90;55.69
65058;HTU21D;51644;51.068;5.860;2023-06-26T03:06:57;23.91;55.73
65058;HTU21D;51644;51.068;5.860;2023-06-26T03:07:55;23.90;55.69
65058;HTU21D;51644;51.068;5.860;2023-06-26T03:08:54;23.89;55.80
65058;HTU21D;51644;51.068;5.860;2023-06-26T03:09:53;23.89;55.88
65058;HTU21D;51644;51.068;5.860;2023-06-26T03:10:51;23.89;55.92
65058;HTU21D;51644;51.068;5.860;2023-06-26T03:11:53;23.88;56.13
65058;HTU21D;51644;51.068;5.860;2023-06-26T03:12:54;23.88;56.03
65058;HTU21D;51644;51.068;5.860;2023-06-26T03:13:53;23.89;56.01
65058;HTU21D;51644;51.068;5.860;2023-06-26T03:14:51;23.89;55.97
65058;HTU21D;51644;51.068;5.860;2023-06-26T03:15:50;23.89;55.97
65058;HTU21D;51644;51.068;5.860;2023-06-26T03:16:48;23.90;56.09
65058;HTU21D;51644;51.068;5.860;2023-06-26T03:17:49;23.89;56.27
65058;HTU21D;51644;51.068;5.860;2023-06-26T03:18:54;23.89;56.41
65058;HTU21D;51644;51.068;5.860;2023-06-26T03:19:53;23.90;56.44
65058;HTU21D;51644;51.068;5.860;2023-06-26T03:20:57;23.86;56.53
65058;HTU21D;51644;51.068;5.860;2023-06-26T03:21:56;23.82;56.58
65058;HTU21D;51644;51.068;5.860;2023-06-26T03:22:55;23.80;56.58
65058;HTU21D;51644;51.068;5.860;2023-06-26T03:23:55;23.74;56.65
65058;HTU21D;51644;51.068;5.860;2023-06-26T03:24:53;23.73;56.61
65058;HTU21D;51644;51.068;5.860;2023-06-26T03:25:54;23.72;56.63
65058;HTU21D;51644;51.068;5.860;2023-06-26T03:27:03;23.71;56.67
65058;HTU21D;51644;51.068;5.860;2023-06-26T03:28:02;23.70;56.58
65058;HTU21D;51644;51.068;5.860;2023-06-26T03:29:03;23.70;56.53
65058;HTU21D;51644;51.068;5.860;2023-06-26T03:30:02;23.68;56.45
65058;HTU21D;51644;51.068;5.860;2023-06-26T03:31:00;23.65;56.48
65058;HTU21D;51644;51.068;5.860;2023-06-26T03:31:59;23.66;56.41
65058;HTU21D;51644;51.068;5.860;2023-06-26T03:32:59;23.65;56.36
65058;HTU21D;51644;51.068;5.860;2023-06-26T03:33:57;23.65;56.33
65058;HTU21D;51644;51.068;5.860;2023-06-26T03:34:56;23.66;56.39
65058;HTU21D;51644;51.068;5.860;2023-06-26T03:35:58;23.64;56.48
65058;HTU21D;51644;51.068;5.860;2023-06-26T03:36:57;23.64;56.51
65058;HTU21D;51644;51.068;5.860;2023-06-26T03:37:57;23.62;56.47
65058;HTU21D;51644;51.068;5.860;2023-06-26T03:38:56;23.64;56.55
65058;HTU21D;51644;51.068;5.860;2023-06-26T03:39:57;23.66;56.69
65058;HTU21D;51644;51.068;5.860;2023-06-26T03:40:55;23.66;56.87
65058;HTU21D;51644;51.068;5.860;2023-06-26T03:41:54;23.68;56.99
65058;HTU21D;51644;51.068;5.860;2023-06-26T03:42:53;23.69;57.21
65058;HTU21D;51644;51.068;5.860;2023-06-26T03:43:52;23.71;57.13
65058;HTU21D;51644;51.068;5.860;2023-06-26T03:44:53;23.74;57.31
65058;HTU21D;51644;51.068;5.860;2023-06-26T03:45:52;23.76;57.25
65058;HTU21D;51644;51.068;5.860;2023-06-26T03:46:51;23.76;57.35
65058;HTU21D;51644;51.068;5.860;2023-06-26T03:47:49;23.74;57.78
65058;HTU21D;51644;51.068;5.860;2023-06-26T03:48:48;23.68;58.10
65058;HTU21D;51644;51.068;5.860;2023-06-26T03:49:47;23.65;58.58
65058;HTU21D;51644;51.068;5.860;2023-06-26T03:50:46;23.60;58.78
65058;HTU21D;51644;51.068;5.860;2023-06-26T03:51:45;23.61;59.03
65058;HTU21D;51644;51.068;5.860;2023-06-26T03:52:43;23.54;59.40
65058;HTU21D;51644;51.068;5.860;2023-06-26T03:53:44;23.52;59.61
65058;HTU21D;51644;51.068;5.860;2023-06-26T03:54:43;23.50;59.90
65058;HTU21D;51644;51.068;5.860;2023-06-26T03:55:43;23.43;60.11
65058;HTU21D;51644;51.068;5.860;2023-06-26T03:56:42;23.41;60.19
65058;HTU21D;51644;51.068;5.860;2023-06-26T03:57:40;23.41;60.36
65058;HTU21D;51644;51.068;5.860;2023-06-26T03:58:41;23.43;60.48
65058;HTU21D;51644;51.068;5.860;2023-06-26T03:59:40;23.41;60.62
65058;HTU21D;51644;51.068;5.860;2023-06-26T04:00:39;23.42;60.71
65058;HTU21D;51644;51.068;5.860;2023-06-26T04:01:41;23.42;60.96
65058;HTU21D;51644;51.068;5.860;2023-06-26T04:02:39;23.44;60.98
65058;HTU21D;51644;51.068;5.860;2023-06-26T04:03:38;23.46;60.96
65058;HTU21D;51644;51.068;5.860;2023-06-26T04:04:37;23.51;61.01
65058;HTU21D;51644;51.068;5.860;2023-06-26T04:05:35;23.49;61.05
65058;HTU21D;51644;51.068;5.860;2023-06-26T04:06:34;23.49;60.87
65058;HTU21D;51644;51.068;5.860;2023-06-26T04:07:33;23.52;60.80
65058;HTU21D;51644;51.068;5.860;2023-06-26T04:08:33;23.53;60.84
65058;HTU21D;51644;51.068;5.860;2023-06-26T04:09:32;23.55;60.78
65058;HTU21D;51644;51.068;5.860;2023-06-26T04:10:41;23.57;60.54
65058;HTU21D;51644;51.068;5.860;2023-06-26T04:11:39;23.58;60.44
65058;HTU21D;51644;51.068;5.860;2023-06-26T04:12:38;23.57;60.32
65058;HTU21D;51644;51.068;5.860;2023-06-26T04:13:36;23.56;60.15
65058;HTU21D;51644;51.068;5.860;2023-06-26T04:14:35;23.58;59.89
65058;HTU21D;51644;51.068;5.860;2023-06-26T04:15:34;23.57;59.67
65058;HTU21D;51644;51.068;5.860;2023-06-26T04:16:32;23.59;59.51
65058;HTU21D;51644;51.068;5.860;2023-06-26T04:17:31;23.54;59.40
65058;HTU21D;51644;51.068;5.860;2023-06-26T04:18:30;23.56;59.08
65058;HTU21D;51644;51.068;5.860;2023-06-26T04:19:29;23.56;58.85
65058;HTU21D;51644;51.068;5.860;2023-06-26T04:20:28;23.55;58.79
65058;HTU21D;51644;51.068;5.860;2023-06-26T04:21:27;23.53;58.66
65058;HTU21D;51644;51.068;5.860;2023-06-26T04:22:30;23.54;58.61
65058;HTU21D;51644;51.068;5.860;2023-06-26T04:23:28;23.56;58.48
65058;HTU21D;51644;51.068;5.860;2023-06-26T04:24:27;23.55;58.30
65058;HTU21D;51644;51.068;5.860;2023-06-26T04:25:26;23.57;58.20
65058;HTU21D;51644;51.068;5.860;2023-06-26T04:26:28;23.55;58.29
65058;HTU21D;51644;51.068;5.860;2023-06-26T04:27:26;23.53;58.14
65058;HTU21D;51644;51.068;5.860;2023-06-26T04:28:28;23.53;58.02
65058;HTU21D;51644;51.068;5.860;2023-06-26T04:29:27;23.54;57.91
65058;HTU21D;51644;51.068;5.860;2023-06-26T04:30:26;23.49;58.12
65058;HTU21D;51644;51.068;5.860;2023-06-26T04:31:24;23.47;57.88
65058;HTU21D;51644;51.068;5.860;2023-06-26T04:32:23;23.50;57.81
65058;HTU21D;51644;51.068;5.860;2023-06-26T04:33:22;23.51;58.02
65058;HTU21D;51644;51.068;5.860;2023-06-26T04:34:21;23.54;57.97
65058;HTU21D;51644;51.068;5.860;2023-06-26T04:35:21;23.55;58.03
65058;HTU21D;51644;51.068;5.860;2023-06-26T04:36:20;23.59;57.88
65058;HTU21D;51644;51.068;5.860;2023-06-26T04:37:18;23.68;57.71
65058;HTU21D;51644;51.068;5.860;2023-06-26T04:38:18;23.74;57.54
65058;HTU21D;51644;51.068;5.860;2023-06-26T04:39:17;23.83;57.41
65058;HTU21D;51644;51.068;5.860;2023-06-26T04:40:16;23.86;57.15
65058;HTU21D;51644;51.068;5.860;2023-06-26T04:41:14;23.92;56.94
65058;HTU21D;51644;51.068;5.860;2023-06-26T04:42:13;23.95;56.87
65058;HTU21D;51644;51.068;5.860;2023-06-26T04:43:12;23.95;56.89
65058;HTU21D;51644;51.068;5.860;2023-06-26T04:44:10;23.95;56.98
65058;HTU21D;51644;51.068;5.860;2023-06-26T04:45:09;23.94;57.04
65058;HTU21D;51644;51.068;5.860;2023-06-26T04:46:07;23.95;57.08
65058;HTU21D;51644;51.068;5.860;2023-06-26T04:47:09;23.91;57.05
65058;HTU21D;51644;51.068;5.860;2023-06-26T04:48:08;23.91;57.10
65058;HTU21D;51644;51.068;5.860;2023-06-26T04:49:10;23.92;57.35
65058;HTU21D;51644;51.068;5.860;2023-06-26T04:50:09;23.92;57.19
65058;HTU21D;51644;51.068;5.860;2023-06-26T04:51:08;23.87;57.29
65058;HTU21D;51644;51.068;5.860;2023-06-26T04:52:06;23.84;57.36
65058;HTU21D;51644;51.068;5.860;2023-06-26T04:53:05;23.77;57.39
65058;HTU21D;51644;51.068;5.860;2023-06-26T04:54:03;23.70;57.71
65058;HTU21D;51644;51.068;5.860;2023-06-26T04:55:03;23.62;57.77
65058;HTU21D;51644;51.068;5.860;2023-06-26T04:56:01;23.59;57.94
65058;HTU21D;51644;51.068;5.860;2023-06-26T04:57:00;23.59;58.08
65058;HTU21D;51644;51.068;5.860;2023-06-26T04:57:59;23.59;58.20
65058;HTU21D;51644;51.068;5.860;2023-06-26T04:58:58;23.60;58.45
65058;HTU21D;51644;51.068;5.860;2023-06-26T04:59:56;23.58;58.40
65058;HTU21D;51644;51.068;5.860;2023-06-26T05:00:55;23.65;58.15
65058;HTU21D;51644;51.068;5.860;2023-06-26T05:01:53;23.67;58.19
65058;HTU21D;51644;51.068;5.860;2023-06-26T05:02:52;23.71;58.11
65058;HTU21D;51644;51.068;5.860;2023-06-26T05:03:58;23.81;58.12
65058;HTU21D;51644;51.068;5.860;2023-06-26T05:04:57;23.87;57.97
65058;HTU21D;51644;51.068;5.860;2023-06-26T05:05:56;23.97;57.74
65058;HTU21D;51644;51.068;5.860;2023-06-26T05:06:54;24.02;57.54
65058;HTU21D;51644;51.068;5.860;2023-06-26T05:07:56;24.10;57.27
65058;HTU21D;51644;51.068;5.860;2023-06-26T05:08:55;24.14;57.07
65058;HTU21D;51644;51.068;5.860;2023-06-26T05:09:53;24.16;57.05
65058;HTU21D;51644;51.068;5.860;2023-06-26T05:10:52;24.14;57.00
65058;HTU21D;51644;51.068;5.860;2023-06-26T05:11:57;24.09;57.86
65058;HTU21D;51644;51.068;5.860;2023-06-26T05:12:59;24.06;57.02
65058;HTU21D;51644;51.068;5.860;2023-06-26T05:13:57;24.01;57.16
65058;HTU21D;51644;51.068;5.860;2023-06-26T05:14:56;23.97;57.32
65058;HTU21D;51644;51.068;5.860;2023-06-26T05:15:54;23.91;57.52
65058;HTU21D;51644;51.068;5.860;2023-06-26T05:16:53;23.88;57.64
65058;HTU21D;51644;51.068;5.860;2023-06-26T05:17:52;23.87;57.89
65058;HTU21D;51644;51.068;5.860;2023-06-26T05:18:50;23.89;57.87
65058;HTU21D;51644;51.068;5.860;2023-06-26T05:19:49;23.97;58.06
65058;HTU21D;51644;51.068;5.860;2023-06-26T05:20:50;23.94;58.13
65058;HTU21D;51644;51.068;5.860;2023-06-26T05:21:50;23.95;58.31
65058;HTU21D;51644;51.068;5.860;2023-06-26T05:22:50;23.95;58.02
65058;HTU21D;51644;51.068;5.860;2023-06-26T05:23:52;23.95;58.10
65058;HTU21D;51644;51.068;5.860;2023-06-26T05:24:55;23.99;58.09
65058;HTU21D;51644;51.068;5.860;2023-06-26T05:25:57;24.06;57.84
65058;HTU21D;51644;51.068;5.860;2023-06-26T05:26:56;24.11;57.96
65058;HTU21D;51644;51.068;5.860;2023-06-26T05:27:56;24.15;57.66
65058;HTU21D;51644;51.068;5.860;2023-06-26T05:28:55;24.19;57.64
65058;HTU21D;51644;51.068;5.860;2023-06-26T05:29:54;24.18;57.66
65058;HTU21D;51644;51.068;5.860;2023-06-26T05:30:53;24.14;57.80
65058;HTU21D;51644;51.068;5.860;2023-06-26T05:31:53;24.11;57.78
65058;HTU21D;51644;51.068;5.860;2023-06-26T05:32:54;24.09;57.87
65058;HTU21D;51644;51.068;5.860;2023-06-26T05:33:55;24.09;58.01
65058;HTU21D;51644;51.068;5.860;2023-06-26T05:34:57;24.09;58.06
65058;HTU21D;51644;51.068;5.860;2023-06-26T05:35:59;24.12;58.21
65058;HTU21D;51644;51.068;5.860;2023-06-26T05:36:58;24.12;58.34
65058;HTU21D;51644;51.068;5.860;2023-06-26T05:37:58;24.06;58.27
65058;HTU21D;51644;51.068;5.860;2023-06-26T05:38:57;24.04;58.27
65058;HTU21D;51644;51.068;5.860;2023-06-26T05:39:56;24.03;58.12
65058;HTU21D;51644;51.068;5.860;2023-06-26T05:40:55;24.03;58.13
65058;HTU21D;51644;51.068;5.860;2023-06-26T05:41:54;24.03;58.06
65058;HTU21D;51644;51.068;5.860;2023-06-26T05:42:58;24.03;57.93
65058;HTU21D;51644;51.068;5.860;2023-06-26T05:44:00;24.00;58.11
65058;HTU21D;51644;51.068;5.860;2023-06-26T05:44:58;23.99;58.19
65058;HTU21D;51644;51.068;5.860;2023-06-26T05:45:57;23.98;58.01
65058;HTU21D;51644;51.068;5.860;2023-06-26T05:46:58;23.95;58.28
65058;HTU21D;51644;51.068;5.860;2023-06-26T05:47:57;23.96;58.26
65058;HTU21D;51644;51.068;5.860;2023-06-26T05:48:56;23.95;58.35
65058;HTU21D;51644;51.068;5.860;2023-06-26T05:49:55;24.00;58.25
65058;HTU21D;51644;51.068;5.860;2023-06-26T05:50:54;24.09;58.03
65058;HTU21D;51644;51.068;5.860;2023-06-26T05:51:53;24.17;57.87
65058;HTU21D;51644;51.068;5.860;2023-06-26T05:52:52;24.20;57.88
65058;HTU21D;51644;51.068;5.860;2023-06-26T05:53:51;24.21;57.77
65058;HTU21D;51644;51.068;5.860;2023-06-26T05:54:50;24.21;58.06
65058;HTU21D;51644;51.068;5.860;2023-06-26T05:55:49;24.23;57.70
65058;HTU21D;51644;51.068;5.860;2023-06-26T05:56:48;24.20;57.64
65058;HTU21D;51644;51.068;5.860;2023-06-26T05:57:48;24.17;57.71
65058;HTU21D;51644;51.068;5.860;2023-06-26T05:58:49;24.18;57.52
65058;HTU21D;51644;51.068;5.860;2023-06-26T05:59:49;24.17;57.51
65058;HTU21D;51644;51.068;5.860;2023-06-26T06:00:48;24.18;57.56
65058;HTU21D;51644;51.068;5.860;2023-06-26T06:01:46;24.19;57.67
65058;HTU21D;51644;51.068;5.860;2023-06-26T06:02:45;24.17;57.79
65058;HTU21D;51644;51.068;5.860;2023-06-26T06:03:44;24.17;57.81
65058;HTU21D;51644;51.068;5.860;2023-06-26T06:04:42;24.17;57.87
65058;HTU21D;51644;51.068;5.860;2023-06-26T06:05:41;24.19;57.87
65058;HTU21D;51644;51.068;5.860;2023-06-26T06:06:39;24.21;57.83
65058;HTU21D;51644;51.068;5.860;2023-06-26T06:07:38;24.25;57.81
65058;HTU21D;51644;51.068;5.860;2023-06-26T06:08:36;24.28;57.80
65058;HTU21D;51644;51.068;5.860;2023-06-26T06:09:35;24.32;57.67
65058;HTU21D;51644;51.068;5.860;2023-06-26T06:10:34;24.39;57.63
65058;HTU21D;51644;51.068;5.860;2023-06-26T06:11:32;24.39;57.47
65058;HTU21D;51644;51.068;5.860;2023-06-26T06:12:31;24.42;57.27
65058;HTU21D;51644;51.068;5.860;2023-06-26T06:13:30;24.42;57.29
65058;HTU21D;51644;51.068;5.860;2023-06-26T06:14:28;24.44;57.21
65058;HTU21D;51644;51.068;5.860;2023-06-26T06:15:27;24.46;57.33
65058;HTU21D;51644;51.068;5.860;2023-06-26T06:16:26;24.51;57.23
65058;HTU21D;51644;51.068;5.860;2023-06-26T06:17:27;24.71;56.64